createdAt,value
2023-12-18T00:00:38.208Z,4.29
2023-12-18T00:03:05.163Z,4.14
2023-12-18T00:05:31.874Z,4.25
2023-12-18T00:07:58.355Z,4.18
2023-12-18T00:10:24.894Z,4.19
2023-12-18T00:12:51.328Z,4.36
2023-12-18T00:15:18.018Z,4.31
2023-12-18T00:17:44.873Z,4.22
2023-12-18T00:20:12.060Z,4.18
2023-12-18T00:22:38.768Z,3.98
2023-12-18T00:25:05.554Z,3.90
2023-12-18T00:27:33.007Z,3.90
2023-12-18T00:29:59.918Z,4.04
2023-12-18T00:32:26.657Z,3.81
2023-12-18T00:34:53.243Z,3.63
2023-12-18T00:37:19.938Z,3.60
2023-12-18T00:39:46.464Z,3.60
2023-12-18T00:42:12.924Z,3.44
2023-12-18T00:44:39.462Z,3.49
2023-12-18T00:47:06.069Z,3.43
2023-12-18T00:49:33.791Z,3.71
2023-12-18T00:52:00.922Z,3.78
2023-12-18T00:54:27.577Z,3.53
2023-12-18T00:56:54.286Z,3.46
2023-12-18T01:00:36.157Z,3.38
2023-12-18T01:03:02.729Z,3.22
2023-12-18T01:05:29.208Z,3.40
2023-12-18T01:07:55.655Z,3.55
2023-12-18T01:10:22.072Z,3.59
2023-12-18T01:12:48.522Z,3.43
2023-12-18T01:15:15.025Z,3.36
2023-12-18T01:17:41.868Z,3.23
2023-12-18T01:20:08.911Z,3.09
2023-12-18T01:22:35.521Z,3.35
2023-12-18T01:25:03.857Z,3.39
2023-12-18T01:27:30.644Z,3.32
2023-12-18T01:29:57.241Z,3.22
2023-12-18T01:32:23.773Z,3.18
2023-12-18T01:34:50.377Z,3.13
2023-12-18T01:37:16.903Z,3.05
2023-12-18T01:39:43.395Z,3.09
2023-12-18T01:42:09.973Z,3.12
2023-12-18T01:44:36.439Z,2.90
2023-12-18T01:47:03.433Z,2.84
2023-12-18T01:49:30.002Z,3.11
2023-12-18T01:51:56.572Z,3.22
2023-12-18T01:54:23.920Z,3.02
2023-12-18T01:56:55.603Z,2.85
2023-12-18T01:59:23.789Z,2.85
2023-12-18T02:01:52.153Z,2.85
2023-12-18T02:04:20.397Z,2.88
2023-12-18T02:06:48.385Z,2.80
2023-12-18T02:09:16.800Z,2.80
2023-12-18T02:11:50.126Z,2.78
2023-12-18T02:14:16.606Z,2.60
2023-12-18T02:16:43.091Z,2.70
2023-12-18T02:19:29.676Z,2.91
2023-12-18T02:21:57.652Z,2.64
2023-12-18T02:24:24.822Z,2.58
2023-12-18T02:26:51.921Z,2.64
2023-12-18T02:29:18.341Z,2.44
2023-12-18T02:31:44.795Z,2.50
2023-12-18T02:34:11.519Z,2.53
2023-12-18T02:36:38.096Z,2.50
2023-12-18T02:39:04.641Z,2.43
2023-12-18T02:41:31.120Z,2.33
2023-12-18T02:43:58.460Z,2.16
2023-12-18T02:46:24.942Z,2.22
2023-12-18T02:48:51.536Z,2.20
2023-12-18T02:51:18.088Z,2.15
2023-12-18T02:53:44.665Z,2.10
2023-12-18T02:56:14.186Z,2.19
2023-12-18T02:58:41.630Z,2.22
2023-12-18T03:01:08.104Z,2.20
2023-12-18T03:03:34.931Z,2.37
2023-12-18T03:06:02.966Z,2.20
2023-12-18T03:08:29.494Z,2.23
2023-12-18T03:10:56.005Z,2.44
2023-12-18T03:13:22.495Z,2.57
2023-12-18T03:15:49.303Z,2.39
2023-12-18T03:18:16.011Z,2.26
2023-12-18T03:20:42.557Z,2.08
2023-12-18T03:23:09.032Z,1.99
2023-12-18T03:25:35.494Z,1.86
2023-12-18T03:28:02.209Z,1.95
2023-12-18T03:30:28.727Z,2.10
2023-12-18T03:32:56.849Z,2.20
2023-12-18T03:35:23.580Z,1.99
2023-12-18T03:37:50.079Z,1.83
2023-12-18T03:40:16.544Z,1.77
2023-12-18T03:42:43.131Z,1.81
2023-12-18T03:45:10.151Z,1.83
2023-12-18T03:47:36.751Z,1.78
2023-12-18T03:50:03.602Z,1.88
2023-12-18T03:52:30.112Z,1.88
2023-12-18T03:54:56.673Z,1.88
2023-12-18T03:57:23.382Z,1.68
2023-12-18T03:59:49.863Z,1.55
2023-12-18T04:02:16.533Z,1.57
2023-12-18T04:04:43.065Z,1.60
2023-12-18T04:07:09.643Z,1.67
2023-12-18T04:09:39.556Z,1.57
2023-12-18T04:12:06.626Z,1.48
2023-12-18T04:14:33.045Z,1.68
2023-12-18T04:16:59.506Z,1.58
2023-12-18T04:19:26.262Z,1.60
2023-12-18T04:21:52.996Z,1.39
2023-12-18T04:24:20.805Z,1.36
2023-12-18T04:26:47.881Z,1.27
2023-12-18T04:29:14.412Z,1.29
2023-12-18T04:31:41.981Z,1.47
2023-12-18T04:34:09.675Z,1.52
2023-12-18T04:36:40.505Z,1.37
2023-12-18T04:39:07.205Z,1.40
2023-12-18T04:41:33.891Z,1.27
2023-12-18T04:44:00.433Z,1.36
2023-12-18T04:46:29.335Z,1.13
2023-12-18T04:48:55.976Z,1.24
2023-12-18T04:51:22.564Z,1.23
2023-12-18T04:53:49.059Z,1.26
2023-12-18T04:56:15.514Z,1.15
2023-12-18T04:58:41.978Z,1.30
2023-12-18T05:01:10.762Z,1.12
2023-12-18T05:03:40.439Z,1.13
2023-12-18T05:06:22.335Z,1.07
2023-12-18T05:08:52.145Z,1.07
2023-12-18T05:11:20.199Z,1.12
2023-12-18T05:13:47.837Z,0.99
2023-12-18T05:16:15.364Z,1.10
2023-12-18T05:18:42.041Z,1.02
2023-12-18T05:21:08.615Z,1.04
2023-12-18T05:23:35.065Z,1.16
2023-12-18T05:26:01.719Z,1.19
2023-12-18T05:28:28.764Z,1.27
2023-12-18T05:30:55.485Z,1.20
2023-12-18T05:33:22.392Z,1.15
2023-12-18T05:35:49.098Z,1.19
2023-12-18T05:38:16.593Z,1.19
2023-12-18T05:40:43.166Z,1.23
2023-12-18T05:43:09.693Z,1.34
2023-12-18T05:45:36.284Z,1.50
2023-12-18T05:48:02.919Z,1.17
2023-12-18T05:50:29.560Z,1.09
2023-12-18T05:52:56.062Z,1.06
2023-12-18T05:55:22.724Z,1.12
2023-12-18T05:57:49.260Z,0.99
2023-12-18T06:00:16.440Z,1.12
2023-12-18T06:02:43.168Z,0.97
2023-12-18T06:05:09.913Z,0.99
2023-12-18T06:07:38.837Z,0.97
2023-12-18T06:10:07.817Z,0.99
2023-12-18T06:12:34.296Z,1.10
2023-12-18T06:15:00.880Z,0.93
2023-12-18T06:17:27.385Z,0.96
2023-12-18T06:19:53.962Z,0.97
2023-12-18T06:22:20.467Z,1.06
2023-12-18T06:24:46.984Z,1.20
2023-12-18T06:27:13.580Z,1.12
2023-12-18T06:29:40.161Z,1.02
2023-12-18T06:32:07.301Z,1.12
2023-12-18T06:34:34.430Z,0.96
2023-12-18T06:37:01.044Z,0.96
2023-12-18T06:39:28.068Z,1.02
2023-12-18T06:41:56.695Z,1.03
2023-12-18T06:44:23.181Z,1.16
2023-12-18T06:46:50.000Z,0.85
2023-12-18T06:49:16.713Z,0.93
2023-12-18T06:51:45.577Z,0.89
2023-12-18T06:54:13.886Z,1.04
2023-12-18T06:56:40.490Z,1.27
2023-12-18T06:59:07.627Z,1.24
2023-12-18T07:01:35.120Z,1.12
2023-12-18T07:04:04.270Z,1.19
2023-12-18T07:06:31.879Z,1.13
2023-12-18T07:08:58.543Z,1.09
2023-12-18T07:11:25.069Z,1.02
2023-12-18T07:13:53.257Z,1.06
2023-12-18T07:16:23.825Z,1.07
2023-12-18T07:18:50.970Z,1.06
2023-12-18T07:21:17.962Z,1.12
2023-12-18T07:23:44.614Z,1.06
2023-12-18T07:26:14.688Z,1.20
2023-12-18T07:28:44.491Z,1.19
2023-12-18T07:32:36.780Z,1.09
2023-12-18T07:35:03.831Z,1.13
2023-12-18T07:37:31.685Z,1.00
2023-12-18T07:40:02.775Z,0.85
2023-12-18T07:42:32.403Z,0.93
2023-12-18T07:44:59.160Z,1.02
2023-12-18T07:47:25.700Z,1.13
2023-12-18T07:49:52.259Z,1.20
2023-12-18T07:52:19.009Z,1.31
2023-12-18T07:54:45.694Z,1.41
2023-12-18T07:57:12.506Z,1.57
2023-12-18T07:59:41.033Z,1.85
2023-12-18T08:02:08.998Z,2.12
2023-12-18T08:04:39.446Z,2.46
2023-12-18T08:07:06.499Z,2.60
2023-12-18T08:09:38.581Z,2.68
2023-12-18T08:12:05.784Z,2.80
2023-12-18T08:14:32.244Z,3.20
2023-12-18T08:16:58.662Z,3.29
2023-12-18T08:19:25.131Z,3.39
2023-12-18T08:21:51.778Z,3.36
2023-12-18T08:24:21.341Z,3.50
2023-12-18T08:26:51.120Z,3.59
2023-12-18T08:29:17.648Z,3.73
2023-12-18T08:31:44.297Z,3.97
2023-12-18T08:34:11.164Z,4.18
2023-12-18T08:36:37.984Z,4.50
2023-12-18T08:39:04.965Z,4.45
2023-12-18T08:41:31.713Z,4.72
2023-12-18T08:44:05.385Z,4.96
2023-12-18T08:46:32.767Z,5.25
2023-12-18T08:48:59.933Z,5.63
2023-12-18T08:51:26.563Z,5.97
2023-12-18T08:53:55.540Z,6.02
2023-12-18T08:56:23.617Z,6.38
2023-12-18T08:58:50.988Z,6.42
2023-12-18T09:01:18.121Z,6.07
2023-12-18T09:03:44.728Z,6.35
2023-12-18T09:06:11.407Z,6.72
2023-12-18T09:08:40.859Z,6.92
2023-12-18T09:11:08.278Z,6.82
2023-12-18T09:13:36.188Z,6.48
2023-12-18T09:16:07.116Z,6.61
2023-12-18T09:18:34.435Z,6.67
2023-12-18T09:21:01.390Z,6.51
2023-12-18T09:23:28.224Z,5.87
2023-12-18T09:25:54.747Z,5.83
2023-12-18T09:28:21.253Z,5.73
2023-12-18T09:30:48.207Z,5.89
2023-12-18T09:33:15.011Z,5.28
2023-12-18T09:35:41.651Z,4.94
2023-12-18T09:38:08.249Z,4.56
2023-12-18T09:40:34.820Z,4.34
2023-12-18T09:43:03.625Z,4.48
2023-12-18T09:45:31.771Z,4.55
2023-12-18T09:47:59.864Z,4.15
2023-12-18T09:50:26.971Z,3.71
2023-12-18T09:53:02.905Z,3.63
2023-12-18T09:55:32.635Z,3.81
2023-12-18T09:58:01.210Z,3.84
2023-12-18T10:00:28.838Z,4.96
2023-12-18T10:02:56.924Z,6.03
2023-12-18T10:05:23.501Z,6.67
2023-12-18T10:07:50.442Z,7.22
2023-12-18T10:10:17.291Z,7.71
2023-12-18T10:12:47.575Z,8.10
2023-12-18T10:15:15.264Z,8.42
2023-12-18T10:17:43.622Z,9.07
2023-12-18T10:20:11.454Z,9.19
2023-12-18T10:22:41.255Z,9.93
2023-12-18T10:25:12.077Z,10.35
2023-12-18T10:27:40.066Z,10.05
2023-12-18T10:30:10.934Z,10.02
2023-12-18T10:32:41.354Z,10.04
2023-12-18T10:35:09.200Z,10.04
2023-12-18T10:37:38.423Z,9.49
2023-12-18T10:40:08.911Z,8.98
2023-12-18T10:42:39.841Z,8.37
2023-12-18T10:45:08.607Z,8.42
2023-12-18T10:47:36.638Z,8.61
2023-12-18T10:50:08.972Z,8.42
2023-12-18T10:52:37.290Z,8.37
2023-12-18T10:55:06.051Z,8.02
2023-12-18T10:57:38.617Z,7.64
2023-12-18T11:00:09.332Z,7.35
2023-12-18T11:02:39.782Z,7.33
2023-12-18T11:05:07.409Z,7.23
2023-12-18T11:07:35.896Z,7.26
2023-12-18T11:10:03.683Z,7.27
2023-12-18T11:12:31.302Z,7.79
2023-12-18T11:15:11.243Z,7.98
2023-12-18T11:17:57.185Z,7.28
2023-12-18T11:20:37.392Z,7.43
2023-12-18T11:23:05.789Z,7.26
2023-12-18T11:25:49.337Z,6.93
2023-12-18T11:28:17.185Z,6.78
2023-12-18T11:30:45.207Z,7.28
2023-12-18T11:33:15.842Z,7.91
2023-12-18T11:35:49.272Z,8.21
2023-12-18T11:38:23.620Z,7.85
2023-12-18T11:40:57.669Z,7.77
2023-12-18T11:43:38.260Z,7.79
2023-12-18T11:46:17.182Z,8.40
2023-12-18T11:48:46.280Z,9.35
2023-12-18T11:51:15.009Z,9.79
2023-12-18T11:53:41.644Z,9.90
2023-12-18T11:56:12.869Z,10.24
2023-12-18T11:58:42.616Z,10.73
2023-12-18T12:01:09.985Z,10.45
2023-12-18T12:03:38.302Z,9.66
2023-12-18T12:06:07.662Z,8.97
2023-12-18T12:08:34.766Z,8.34
2023-12-18T12:11:01.756Z,9.12
2023-12-18T12:13:28.808Z,9.76
2023-12-18T12:16:00.471Z,10.39
2023-12-18T12:18:29.207Z,10.49
2023-12-18T12:20:56.609Z,10.68
2023-12-18T12:23:24.878Z,10.81
2023-12-18T12:25:52.440Z,11.08
2023-12-18T12:28:19.736Z,10.70
2023-12-18T12:30:47.692Z,10.08
2023-12-18T12:33:15.110Z,10.20
2023-12-18T12:35:44.099Z,10.20
2023-12-18T12:38:12.088Z,10.56
2023-12-18T12:40:46.666Z,9.97
2023-12-18T12:43:15.761Z,10.59
2023-12-18T12:45:43.442Z,10.25
2023-12-18T12:48:11.699Z,9.39
2023-12-18T12:50:39.925Z,9.90
2023-12-18T12:53:13.210Z,10.24
2023-12-18T12:55:42.288Z,10.31
2023-12-18T12:58:11.366Z,10.81
2023-12-18T13:00:38.705Z,10.33
2023-12-18T13:03:05.859Z,9.86
2023-12-18T13:05:32.828Z,8.81
2023-12-18T13:08:01.569Z,9.49
2023-12-18T13:10:32.041Z,10.22
2023-12-18T13:12:58.902Z,9.79
2023-12-18T13:15:26.584Z,9.81
2023-12-18T13:17:55.913Z,9.74
2023-12-18T13:20:28.168Z,9.25
2023-12-18T13:22:56.272Z,8.91
2023-12-18T13:25:24.353Z,9.94
2023-12-18T13:27:52.218Z,9.49
2023-12-18T13:30:19.199Z,8.91
2023-12-18T13:32:46.248Z,8.53
2023-12-18T13:35:13.065Z,8.68
2023-12-18T13:37:41.154Z,8.59
2023-12-18T13:40:08.546Z,8.75
2023-12-18T13:42:35.022Z,8.73
2023-12-18T13:45:03.017Z,8.70
2023-12-18T13:47:29.869Z,8.92
2023-12-18T13:49:56.538Z,8.61
2023-12-18T13:52:23.225Z,9.10
2023-12-18T13:54:49.987Z,9.00
2023-12-18T13:57:16.829Z,8.63
2023-12-18T13:59:44.195Z,8.57
2023-12-18T14:02:13.091Z,8.61
2023-12-18T14:04:39.771Z,8.71
2023-12-18T14:07:07.061Z,8.60
2023-12-18T14:09:33.543Z,8.75
2023-12-18T14:12:00.066Z,8.26
2023-12-18T14:14:26.826Z,7.65
2023-12-18T14:16:53.879Z,7.89
2023-12-18T14:19:23.322Z,7.98
2023-12-18T14:21:49.987Z,8.03
2023-12-18T14:24:18.032Z,8.03
2023-12-18T14:26:46.063Z,7.63
2023-12-18T14:29:14.932Z,7.58
2023-12-18T14:31:42.167Z,7.67
2023-12-18T14:34:09.131Z,7.57
2023-12-18T14:36:36.670Z,7.50
2023-12-18T14:39:03.773Z,7.44
2023-12-18T14:41:30.237Z,7.28
2023-12-18T14:43:57.827Z,7.24
2023-12-18T14:46:25.621Z,7.16
2023-12-18T14:48:52.511Z,6.72
2023-12-18T14:51:19.154Z,6.64
2023-12-18T14:53:47.121Z,6.56
2023-12-18T14:56:15.467Z,6.74
2023-12-18T14:58:43.677Z,6.86
2023-12-18T15:01:10.787Z,6.65
2023-12-18T15:03:37.405Z,6.54
2023-12-18T15:06:07.965Z,6.47
2023-12-18T15:08:34.906Z,6.33
2023-12-18T15:11:02.141Z,6.28
2023-12-18T15:13:28.641Z,6.47
2023-12-18T15:15:55.239Z,6.48
2023-12-18T15:18:21.854Z,6.21
2023-12-18T15:20:48.879Z,6.23
2023-12-18T15:23:15.531Z,6.11
2023-12-18T15:25:42.175Z,6.04
2023-12-18T15:28:09.224Z,6.07
2023-12-18T15:30:36.244Z,5.99
2023-12-18T15:33:02.891Z,6.21
2023-12-18T15:35:29.510Z,6.25
2023-12-18T15:37:56.776Z,6.20
2023-12-18T15:40:23.311Z,5.95
2023-12-18T15:42:50.044Z,5.77
2023-12-18T15:45:17.955Z,5.82
2023-12-18T15:47:44.786Z,5.69
2023-12-18T15:50:12.189Z,5.63
2023-12-18T15:52:38.792Z,5.59
2023-12-18T15:55:05.511Z,5.86
2023-12-18T15:57:32.089Z,5.89
2023-12-18T15:59:58.543Z,5.93
2023-12-18T16:02:25.009Z,5.79
2023-12-18T16:04:51.581Z,5.58
2023-12-18T16:07:20.337Z,5.46
2023-12-18T16:09:49.827Z,5.38
2023-12-18T16:12:22.266Z,5.24
2023-12-18T16:14:49.092Z,5.18
2023-12-18T16:17:15.694Z,5.11
2023-12-18T16:19:42.311Z,5.16
2023-12-18T16:22:09.106Z,5.27
2023-12-18T16:24:36.960Z,5.07
2023-12-18T16:27:07.722Z,5.07
2023-12-18T16:29:40.067Z,4.94
2023-12-18T16:32:09.090Z,4.94
2023-12-18T16:34:41.085Z,4.91
2023-12-18T16:37:15.648Z,5.06
2023-12-18T16:39:44.228Z,5.04
2023-12-18T16:42:12.235Z,4.98
2023-12-18T16:44:39.420Z,4.87
2023-12-18T16:47:06.459Z,4.98
2023-12-18T16:49:33.027Z,4.90
2023-12-18T16:51:59.636Z,4.88
2023-12-18T16:54:26.423Z,4.80
2023-12-18T16:56:55.557Z,4.83
2023-12-18T16:59:22.691Z,4.75
2023-12-18T17:01:49.833Z,4.76
2023-12-18T17:04:16.515Z,4.81
2023-12-18T17:06:43.885Z,4.79
2023-12-18T17:09:11.933Z,4.81
2023-12-18T17:11:40.386Z,4.81
2023-12-18T17:14:07.805Z,4.77
2023-12-18T17:16:37.768Z,4.79
2023-12-18T17:19:04.775Z,4.76
2023-12-18T17:21:31.673Z,4.75
2023-12-18T17:23:58.504Z,4.69
2023-12-18T17:26:25.053Z,4.72
2023-12-18T17:28:54.901Z,4.67
2023-12-18T17:31:25.274Z,4.67
2023-12-18T17:33:52.215Z,4.77
2023-12-18T17:36:18.776Z,4.66
2023-12-18T17:38:45.197Z,4.63
2023-12-18T17:41:11.743Z,4.65
2023-12-18T17:43:39.023Z,4.66
2023-12-18T17:46:05.472Z,4.67
2023-12-18T17:48:32.263Z,4.62
2023-12-18T17:51:01.703Z,4.72
2023-12-18T17:53:28.680Z,4.76
2023-12-18T17:55:55.600Z,4.75
2023-12-18T17:58:22.217Z,4.79
2023-12-18T18:00:48.729Z,4.76
2023-12-18T18:03:17.640Z,4.73
2023-12-18T18:05:44.161Z,4.81
2023-12-18T18:08:10.678Z,4.79
2023-12-18T18:10:37.229Z,4.69
2023-12-18T18:13:04.130Z,4.80
2023-12-18T18:15:33.811Z,4.84
2023-12-18T18:18:01.071Z,4.86
2023-12-18T18:20:28.293Z,4.87
2023-12-18T18:22:54.826Z,4.87
2023-12-18T18:25:21.358Z,4.86
2023-12-18T18:27:47.953Z,4.73
2023-12-18T18:30:14.717Z,4.57
2023-12-18T18:32:41.455Z,4.52
2023-12-18T18:35:08.302Z,4.49
2023-12-18T18:37:34.795Z,4.56
2023-12-18T18:40:01.662Z,4.50
2023-12-18T18:42:28.706Z,4.69
2023-12-18T18:44:55.465Z,4.69
2023-12-18T18:47:22.188Z,4.79
2023-12-18T18:49:50.541Z,4.80
2023-12-18T18:52:20.230Z,4.87
2023-12-18T18:57:47.216Z,5.04
2023-12-18T19:00:15.703Z,5.16
2023-12-18T19:02:42.730Z,5.31
2023-12-18T19:05:09.619Z,5.21
2023-12-18T19:07:36.085Z,5.23
2023-12-18T19:10:03.415Z,5.25
2023-12-18T19:12:33.805Z,5.21
2023-12-18T19:15:00.468Z,5.11
2023-12-18T19:17:27.167Z,5.08
2023-12-18T19:19:54.071Z,5.20
2023-12-18T19:22:20.667Z,5.23
2023-12-18T19:24:47.260Z,5.16
2023-12-18T19:27:15.274Z,5.24
2023-12-18T19:29:41.753Z,5.11
2023-12-18T19:32:08.234Z,5.11
2023-12-18T19:34:34.983Z,5.23
2023-12-18T19:37:04.277Z,5.00
2023-12-18T19:39:30.799Z,4.97
2023-12-18T19:41:57.627Z,5.03
2023-12-18T19:44:24.357Z,5.08
2023-12-18T19:46:54.768Z,4.93
2023-12-18T19:49:22.282Z,4.98
2023-12-18T19:51:51.060Z,5.08
2023-12-18T19:54:17.572Z,5.13
2023-12-18T19:56:44.073Z,5.08
2023-12-18T19:59:11.179Z,5.08
2023-12-18T20:01:37.638Z,5.11
2023-12-18T20:04:04.562Z,5.04
2023-12-18T20:06:31.788Z,5.01
2023-12-18T20:08:58.682Z,5.01
2023-12-18T20:11:25.175Z,5.14
2023-12-18T20:13:51.639Z,5.20
2023-12-18T20:16:18.139Z,5.11
2023-12-18T20:18:44.786Z,5.16
2023-12-18T20:21:11.319Z,5.10
2023-12-18T20:23:38.215Z,5.10
2023-12-18T20:26:05.142Z,4.98
2023-12-18T20:28:33.885Z,5.01
2023-12-18T20:31:03.584Z,4.97
2023-12-18T20:33:30.380Z,5.00
2023-12-18T20:35:57.196Z,4.94
2023-12-18T20:38:23.616Z,5.14
2023-12-18T20:40:50.317Z,5.34
2023-12-18T20:43:17.010Z,4.87
2023-12-18T20:45:45.402Z,4.77
2023-12-18T20:48:12.103Z,4.65
2023-12-18T20:50:38.793Z,4.57
2023-12-18T20:53:05.497Z,4.45
2023-12-18T20:55:32.044Z,4.38
2023-12-18T20:58:00.466Z,4.31
2023-12-18T21:00:27.949Z,4.25
2023-12-18T21:02:55.245Z,4.19
2023-12-18T21:05:24.554Z,4.22
2023-12-18T21:07:52.846Z,4.12
2023-12-18T21:10:19.532Z,4.08
2023-12-18T21:12:46.237Z,4.02
2023-12-18T21:15:13.033Z,4.05
2023-12-18T21:17:40.481Z,4.04
2023-12-18T21:20:09.540Z,4.04
2023-12-18T21:22:37.462Z,4.09
2023-12-18T21:25:05.865Z,4.11
2023-12-18T21:27:33.047Z,4.17
2023-12-18T21:29:59.774Z,4.08
2023-12-18T21:32:26.252Z,4.11
2023-12-18T21:34:52.849Z,4.17
2023-12-18T21:37:19.383Z,4.04
2023-12-18T21:39:45.922Z,4.02
2023-12-18T21:42:12.632Z,4.02
2023-12-18T21:44:39.194Z,3.93
2023-12-18T21:47:05.807Z,3.95
2023-12-18T21:49:34.898Z,3.97
2023-12-18T21:52:03.504Z,4.05
2023-12-18T21:54:30.198Z,4.02
2023-12-18T21:56:56.948Z,4.07
2023-12-18T21:59:24.249Z,4.09
2023-12-18T22:01:50.804Z,4.05
2023-12-18T22:04:18.006Z,4.04
2023-12-18T22:06:44.825Z,4.05
2023-12-18T22:09:11.270Z,3.94
2023-12-18T22:11:37.813Z,3.95
2023-12-18T22:14:04.825Z,4.07
2023-12-18T22:16:31.293Z,4.07
2023-12-18T22:18:57.864Z,3.98
2023-12-18T22:21:24.892Z,3.94
2023-12-18T22:23:51.350Z,3.94
2023-12-18T22:26:17.810Z,3.93
2023-12-18T22:28:44.301Z,3.87
2023-12-18T22:31:10.858Z,3.94
2023-12-18T22:33:39.056Z,3.99
2023-12-18T22:36:07.157Z,3.98
2023-12-18T22:38:33.611Z,3.99
2023-12-18T22:41:00.210Z,3.99
2023-12-18T22:43:26.688Z,3.94
2023-12-18T22:45:54.129Z,3.99
2023-12-18T22:48:22.004Z,3.95
2023-12-18T22:50:49.014Z,3.94
2023-12-18T22:53:19.211Z,3.94
2023-12-18T22:55:47.097Z,3.93
2023-12-18T22:58:15.009Z,3.86
2023-12-18T23:00:41.574Z,3.93
2023-12-18T23:03:08.199Z,3.84
2023-12-18T23:05:36.217Z,3.88
2023-12-18T23:08:03.196Z,3.84
2023-12-18T23:10:29.939Z,3.98
2023-12-18T23:12:57.265Z,4.02
2023-12-18T23:15:23.832Z,4.01
2023-12-18T23:17:50.363Z,4.01
2023-12-18T23:20:16.895Z,4.11
2023-12-18T23:22:43.610Z,4.17
2023-12-18T23:25:10.224Z,4.15
2023-12-18T23:27:36.860Z,4.12
2023-12-18T23:30:05.661Z,4.07
2023-12-18T23:32:32.312Z,4.08
2023-12-18T23:34:59.424Z,4.17
2023-12-18T23:37:26.136Z,4.15
2023-12-18T23:39:53.269Z,4.17
2023-12-18T23:42:20.045Z,4.08
2023-12-18T23:44:46.566Z,4.04
2023-12-18T23:47:13.185Z,4.05
2023-12-18T23:49:39.803Z,4.17
2023-12-18T23:52:06.655Z,3.97
2023-12-18T23:54:33.219Z,4.12
2023-12-18T23:57:01.274Z,4.11
2023-12-18T23:59:27.869Z,4.14
